sensor_id;sensor_type;location;lat;lon;timestamp;P1;durP1;ratioP1;P2;durP2;ratioP2
56637;SDS011;42507;51.982;20.140;2022-09-17T00:00:43;4.22;;;2.70;;
56637;SDS011;42507;51.982;20.140;2022-09-17T00:03:13;6.08;;;2.67;;
56637;SDS011;42507;51.982;20.140;2022-09-17T00:05:40;4.20;;;2.83;;
56637;SDS011;42507;51.982;20.140;2022-09-17T00:08:07;4.90;;;3.08;;
56637;SDS011;42507;51.982;20.140;2022-09-17T00:10:37;5.15;;;2.80;;
56637;SDS011;42507;51.982;20.140;2022-09-17T00:13:06;4.42;;;2.65;;
56637;SDS011;42507;51.982;20.140;2022-09-17T00:15:40;6.22;;;2.95;;
56637;SDS011;42507;51.982;20.140;2022-09-17T00:18:09;4.03;;;2.62;;
56637;SDS011;42507;51.982;20.140;2022-09-17T00:20:37;4.05;;;2.58;;
56637;SDS011;42507;51.982;20.140;2022-09-17T00:23:05;3.50;;;2.83;;
56637;SDS011;42507;51.982;20.140;2022-09-17T00:25:31;3.72;;;2.70;;
56637;SDS011;42507;51.982;20.140;2022-09-17T00:27:57;4.50;;;2.50;;
56637;SDS011;42507;51.982;20.140;2022-09-17T00:30:23;5.00;;;2.70;;
56637;SDS011;42507;51.982;20.140;2022-09-17T00:32:50;4.03;;;2.62;;
56637;SDS011;42507;51.982;20.140;2022-09-17T00:35:17;4.75;;;2.60;;
56637;SDS011;42507;51.982;20.140;2022-09-17T00:37:44;5.40;;;2.72;;
56637;SDS011;42507;51.982;20.140;2022-09-17T00:40:10;5.30;;;2.80;;
56637;SDS011;42507;51.982;20.140;2022-09-17T00:42:36;5.25;;;2.72;;
56637;SDS011;42507;51.982;20.140;2022-09-17T00:45:02;5.55;;;2.45;;
56637;SDS011;42507;51.982;20.140;2022-09-17T00:48:15;8.93;;;2.58;;
56637;SDS011;42507;51.982;20.140;2022-09-17T00:50:18;2.95;;;2.50;;
56637;SDS011;42507;51.982;20.140;2022-09-17T00:52:51;4.03;;;2.50;;
56637;SDS011;42507;51.982;20.140;2022-09-17T00:55:25;6.05;;;2.60;;
56637;SDS011;42507;51.982;20.140;2022-09-17T00:57:58;6.17;;;2.80;;
56637;SDS011;42507;51.982;20.140;2022-09-17T01:00:27;4.85;;;3.00;;
56637;SDS011;42507;51.982;20.140;2022-09-17T01:02:56;4.33;;;2.72;;
56637;SDS011;42507;51.982;20.140;2022-09-17T01:05:27;4.92;;;2.42;;
56637;SDS011;42507;51.982;20.140;2022-09-17T01:08:00;6.50;;;3.27;;
56637;SDS011;42507;51.982;20.140;2022-09-17T01:10:44;6.47;;;2.55;;
56637;SDS011;42507;51.982;20.140;2022-09-17T01:21:31;6.00;;;2.62;;
56637;SDS011;42507;51.982;20.140;2022-09-17T01:32:44;5.87;;;2.62;;
56637;SDS011;42507;51.982;20.140;2022-09-17T01:40:57;5.87;;;3.30;;
56637;SDS011;42507;51.982;20.140;2022-09-17T01:43:35;6.17;;;3.40;;
56637;SDS011;42507;51.982;20.140;2022-09-17T01:46:19;7.35;;;3.40;;
56637;SDS011;42507;51.982;20.140;2022-09-17T01:48:48;5.05;;;3.25;;
56637;SDS011;42507;51.982;20.140;2022-09-17T01:51:21;8.10;;;3.27;;
56637;SDS011;42507;51.982;20.140;2022-09-17T01:53:51;5.92;;;3.00;;
56637;SDS011;42507;51.982;20.140;2022-09-17T01:56:34;5.45;;;3.50;;
56637;SDS011;42507;51.982;20.140;2022-09-17T01:59:17;6.62;;;3.58;;
56637;SDS011;42507;51.982;20.140;2022-09-17T02:02:06;5.20;;;3.42;;
56637;SDS011;42507;51.982;20.140;2022-09-17T02:04:57;4.67;;;3.10;;
56637;SDS011;42507;51.982;20.140;2022-09-17T02:07:42;6.37;;;3.55;;
56637;SDS011;42507;51.982;20.140;2022-09-17T02:10:15;7.10;;;3.33;;
56637;SDS011;42507;51.982;20.140;2022-09-17T02:12:45;5.47;;;3.30;;
56637;SDS011;42507;51.982;20.140;2022-09-17T02:15:23;5.05;;;3.17;;
56637;SDS011;42507;51.982;20.140;2022-09-17T02:18:08;6.37;;;3.42;;
56637;SDS011;42507;51.982;20.140;2022-09-17T02:21:07;6.95;;;3.30;;
56637;SDS011;42507;51.982;20.140;2022-09-17T02:23:42;5.70;;;3.17;;
56637;SDS011;42507;51.982;20.140;2022-09-17T02:26:24;4.85;;;3.08;;
56637;SDS011;42507;51.982;20.140;2022-09-17T02:28:55;5.40;;;3.20;;
56637;SDS011;42507;51.982;20.140;2022-09-17T02:31:25;7.08;;;3.15;;
56637;SDS011;42507;51.982;20.140;2022-09-17T02:33:51;5.83;;;3.27;;
56637;SDS011;42507;51.982;20.140;2022-09-17T02:36:22;6.00;;;2.87;;
56637;SDS011;42507;51.982;20.140;2022-09-17T02:38:58;5.10;;;3.30;;
56637;SDS011;42507;51.982;20.140;2022-09-17T02:41:31;7.72;;;3.30;;
56637;SDS011;42507;51.982;20.140;2022-09-17T02:44:20;6.65;;;3.10;;
56637;SDS011;42507;51.982;20.140;2022-09-17T02:46:58;4.92;;;3.22;;
56637;SDS011;42507;51.982;20.140;2022-09-17T02:49:39;5.45;;;3.50;;
56637;SDS011;42507;51.982;20.140;2022-09-17T02:52:30;5.85;;;3.62;;
56637;SDS011;42507;51.982;20.140;2022-09-17T02:55:31;3.92;;;3.30;;
56637;SDS011;42507;51.982;20.140;2022-09-17T02:58:18;7.30;;;3.60;;
56637;SDS011;42507;51.982;20.140;2022-09-17T03:00:46;6.87;;;3.98;;
56637;SDS011;42507;51.982;20.140;2022-09-17T03:03:16;8.25;;;3.60;;
56637;SDS011;42507;51.982;20.140;2022-09-17T03:05:49;6.17;;;2.95;;
56637;SDS011;42507;51.982;20.140;2022-09-17T03:08:15;4.75;;;2.92;;
56637;SDS011;42507;51.982;20.140;2022-09-17T03:10:44;5.15;;;3.40;;
56637;SDS011;42507;51.982;20.140;2022-09-17T03:13:13;4.75;;;3.25;;
56637;SDS011;42507;51.982;20.140;2022-09-17T03:15:40;5.10;;;3.95;;
56637;SDS011;42507;51.982;20.140;2022-09-17T03:18:07;7.42;;;3.22;;
56637;SDS011;42507;51.982;20.140;2022-09-17T03:20:33;6.90;;;3.62;;
56637;SDS011;42507;51.982;20.140;2022-09-17T03:22:59;5.65;;;3.35;;
56637;SDS011;42507;51.982;20.140;2022-09-17T03:25:25;5.92;;;3.70;;
56637;SDS011;42507;51.982;20.140;2022-09-17T03:27:52;4.95;;;3.55;;
56637;SDS011;42507;51.982;20.140;2022-09-17T03:30:18;7.03;;;3.30;;
56637;SDS011;42507;51.982;20.140;2022-09-17T03:32:44;4.33;;;3.62;;
56637;SDS011;42507;51.982;20.140;2022-09-17T03:35:11;5.58;;;3.52;;
56637;SDS011;42507;51.982;20.140;2022-09-17T03:37:37;4.35;;;3.83;;
56637;SDS011;42507;51.982;20.140;2022-09-17T03:40:04;7.70;;;3.55;;
56637;SDS011;42507;51.982;20.140;2022-09-17T03:42:32;7.28;;;4.12;;
56637;SDS011;42507;51.982;20.140;2022-09-17T03:44:58;6.17;;;4.10;;
56637;SDS011;42507;51.982;20.140;2022-09-17T03:47:24;6.85;;;3.50;;
56637;SDS011;42507;51.982;20.140;2022-09-17T03:49:50;5.97;;;3.47;;
56637;SDS011;42507;51.982;20.140;2022-09-17T03:52:17;6.70;;;3.85;;
56637;SDS011;42507;51.982;20.140;2022-09-17T03:54:43;6.30;;;3.90;;
56637;SDS011;42507;51.982;20.140;2022-09-17T03:57:09;6.00;;;4.08;;
56637;SDS011;42507;51.982;20.140;2022-09-17T03:59:35;7.12;;;3.92;;
56637;SDS011;42507;51.982;20.140;2022-09-17T04:02:02;6.12;;;3.70;;
56637;SDS011;42507;51.982;20.140;2022-09-17T04:04:28;8.28;;;4.10;;
56637;SDS011;42507;51.982;20.140;2022-09-17T04:06:54;5.20;;;3.50;;
56637;SDS011;42507;51.982;20.140;2022-09-17T04:09:20;4.70;;;4.05;;
56637;SDS011;42507;51.982;20.140;2022-09-17T04:11:46;4.92;;;4.03;;
56637;SDS011;42507;51.982;20.140;2022-09-17T04:14:12;4.95;;;3.90;;
56637;SDS011;42507;51.982;20.140;2022-09-17T04:16:39;6.50;;;4.37;;
56637;SDS011;42507;51.982;20.140;2022-09-17T04:19:05;4.40;;;3.62;;
56637;SDS011;42507;51.982;20.140;2022-09-17T04:21:31;5.58;;;3.62;;
56637;SDS011;42507;51.982;20.140;2022-09-17T04:23:57;5.47;;;3.98;;
56637;SDS011;42507;51.982;20.140;2022-09-17T04:26:24;4.92;;;3.00;;
56637;SDS011;42507;51.982;20.140;2022-09-17T04:28:50;5.20;;;4.00;;
56637;SDS011;42507;51.982;20.140;2022-09-17T04:31:16;9.65;;;3.70;;
56637;SDS011;42507;51.982;20.140;2022-09-17T04:33:42;3.98;;;3.20;;
56637;SDS011;42507;51.982;20.140;2022-09-17T04:36:08;5.05;;;3.12;;
56637;SDS011;42507;51.982;20.140;2022-09-17T04:38:35;4.97;;;3.15;;
56637;SDS011;42507;51.982;20.140;2022-09-17T04:41:01;6.53;;;3.72;;
56637;SDS011;42507;51.982;20.140;2022-09-17T04:43:27;5.80;;;3.50;;
56637;SDS011;42507;51.982;20.140;2022-09-17T04:45:53;4.42;;;3.30;;
56637;SDS011;42507;51.982;20.140;2022-09-17T04:48:19;4.75;;;3.20;;
56637;SDS011;42507;51.982;20.140;2022-09-17T04:50:45;5.85;;;3.02;;
56637;SDS011;42507;51.982;20.140;2022-09-17T04:53:11;8.15;;;3.62;;
56637;SDS011;42507;51.982;20.140;2022-09-17T04:55:38;5.92;;;3.30;;
56637;SDS011;42507;51.982;20.140;2022-09-17T04:58:04;4.95;;;3.62;;
56637;SDS011;42507;51.982;20.140;2022-09-17T05:00:30;7.00;;;4.17;;
56637;SDS011;42507;51.982;20.140;2022-09-17T05:02:56;6.80;;;4.28;;
56637;SDS011;42507;51.982;20.140;2022-09-17T05:05:23;5.42;;;3.45;;
56637;SDS011;42507;51.982;20.140;2022-09-17T05:07:50;5.10;;;3.25;;
56637;SDS011;42507;51.982;20.140;2022-09-17T05:10:17;4.42;;;3.25;;
56637;SDS011;42507;51.982;20.140;2022-09-17T05:12:48;7.30;;;3.80;;
56637;SDS011;42507;51.982;20.140;2022-09-17T05:15:16;5.95;;;3.22;;
56637;SDS011;42507;51.982;20.140;2022-09-17T05:17:42;4.00;;;3.10;;
56637;SDS011;42507;51.982;20.140;2022-09-17T05:20:08;6.25;;;3.30;;
56637;SDS011;42507;51.982;20.140;2022-09-17T05:22:39;4.25;;;2.50;;
56637;SDS011;42507;51.982;20.140;2022-09-17T05:25:11;4.35;;;2.65;;
56637;SDS011;42507;51.982;20.140;2022-09-17T05:27:39;4.65;;;2.67;;
56637;SDS011;42507;51.982;20.140;2022-09-17T05:30:06;7.00;;;2.90;;
56637;SDS011;42507;51.982;20.140;2022-09-17T05:32:33;5.17;;;2.60;;
56637;SDS011;42507;51.982;20.140;2022-09-17T05:35:01;5.10;;;2.58;;
56637;SDS011;42507;51.982;20.140;2022-09-17T05:37:28;6.25;;;2.62;;
56637;SDS011;42507;51.982;20.140;2022-09-17T05:39:54;5.10;;;2.58;;
56637;SDS011;42507;51.982;20.140;2022-09-17T05:42:20;5.95;;;2.60;;
56637;SDS011;42507;51.982;20.140;2022-09-17T05:44:47;4.83;;;2.58;;
56637;SDS011;42507;51.982;20.140;2022-09-17T05:47:13;5.00;;;2.85;;
56637;SDS011;42507;51.982;20.140;2022-09-17T05:49:39;5.37;;;2.70;;
56637;SDS011;42507;51.982;20.140;2022-09-17T05:52:06;6.95;;;3.00;;
56637;SDS011;42507;51.982;20.140;2022-09-17T05:54:32;8.45;;;2.62;;
56637;SDS011;42507;51.982;20.140;2022-09-17T05:56:58;6.78;;;2.27;;
56637;SDS011;42507;51.982;20.140;2022-09-17T05:59:24;4.70;;;2.50;;
56637;SDS011;42507;51.982;20.140;2022-09-17T06:01:51;5.17;;;2.30;;
56637;SDS011;42507;51.982;20.140;2022-09-17T06:04:17;4.92;;;2.33;;
56637;SDS011;42507;51.982;20.140;2022-09-17T06:06:43;4.67;;;2.50;;
56637;SDS011;42507;51.982;20.140;2022-09-17T06:09:10;5.03;;;2.33;;
56637;SDS011;42507;51.982;20.140;2022-09-17T06:11:37;7.42;;;2.62;;
56637;SDS011;42507;51.982;20.140;2022-09-17T06:14:03;4.33;;;2.25;;
56637;SDS011;42507;51.982;20.140;2022-09-17T06:16:29;6.60;;;2.20;;
56637;SDS011;42507;51.982;20.140;2022-09-17T06:18:55;3.92;;;1.90;;
56637;SDS011;42507;51.982;20.140;2022-09-17T06:21:22;3.92;;;2.30;;
56637;SDS011;42507;51.982;20.140;2022-09-17T06:23:48;4.15;;;2.00;;
56637;SDS011;42507;51.982;20.140;2022-09-17T06:26:15;6.10;;;2.27;;
56637;SDS011;42507;51.982;20.140;2022-09-17T06:28:42;3.80;;;2.20;;
56637;SDS011;42507;51.982;20.140;2022-09-17T06:31:10;7.75;;;2.62;;
56637;SDS011;42507;51.982;20.140;2022-09-17T06:33:37;5.20;;;2.85;;
56637;SDS011;42507;51.982;20.140;2022-09-17T06:36:04;6.15;;;2.58;;
56637;SDS011;42507;51.982;20.140;2022-09-17T06:38:36;2.87;;;2.20;;
56637;SDS011;42507;51.982;20.140;2022-09-17T06:41:03;3.25;;;2.20;;
56637;SDS011;42507;51.982;20.140;2022-09-17T06:43:30;3.55;;;2.17;;
56637;SDS011;42507;51.982;20.140;2022-09-17T06:45:57;3.40;;;2.37;;
56637;SDS011;42507;51.982;20.140;2022-09-17T06:48:25;4.78;;;2.25;;
56637;SDS011;42507;51.982;20.140;2022-09-17T06:50:54;5.30;;;2.50;;
56637;SDS011;42507;51.982;20.140;2022-09-17T06:53:21;5.70;;;1.98;;
56637;SDS011;42507;51.982;20.140;2022-09-17T06:55:49;6.03;;;2.50;;
56637;SDS011;42507;51.982;20.140;2022-09-17T06:58:16;11.65;;;3.00;;
56637;SDS011;42507;51.982;20.140;2022-09-17T07:00:42;4.65;;;2.70;;
56637;SDS011;42507;51.982;20.140;2022-09-17T07:03:09;2.80;;;2.40;;
56637;SDS011;42507;51.982;20.140;2022-09-17T07:05:36;7.83;;;2.55;;
56637;SDS011;42507;51.982;20.140;2022-09-17T07:08:02;5.70;;;2.58;;
56637;SDS011;42507;51.982;20.140;2022-09-17T07:10:29;3.35;;;2.62;;
56637;SDS011;42507;51.982;20.140;2022-09-17T07:12:56;4.22;;;2.55;;
56637;SDS011;42507;51.982;20.140;2022-09-17T07:15:23;5.35;;;2.58;;
56637;SDS011;42507;51.982;20.140;2022-09-17T07:17:50;5.37;;;2.37;;
56637;SDS011;42507;51.982;20.140;2022-09-17T07:20:16;3.05;;;2.22;;
56637;SDS011;42507;51.982;20.140;2022-09-17T07:22:43;4.22;;;2.60;;
56637;SDS011;42507;51.982;20.140;2022-09-17T07:25:09;4.53;;;2.60;;
56637;SDS011;42507;51.982;20.140;2022-09-17T07:27:36;3.55;;;2.50;;
56637;SDS011;42507;51.982;20.140;2022-09-17T07:30:03;2.75;;;2.27;;
56637;SDS011;42507;51.982;20.140;2022-09-17T07:32:30;5.17;;;2.95;;
56637;SDS011;42507;51.982;20.140;2022-09-17T07:34:56;5.50;;;2.50;;
56637;SDS011;42507;51.982;20.140;2022-09-17T07:37:22;6.35;;;2.33;;
56637;SDS011;42507;51.982;20.140;2022-09-17T07:39:48;5.85;;;2.55;;
56637;SDS011;42507;51.982;20.140;2022-09-17T07:42:15;5.70;;;3.08;;
56637;SDS011;42507;51.982;20.140;2022-09-17T07:44:41;6.28;;;2.35;;
56637;SDS011;42507;51.982;20.140;2022-09-17T07:47:07;2.83;;;2.40;;
56637;SDS011;42507;51.982;20.140;2022-09-17T07:49:34;3.40;;;2.30;;
56637;SDS011;42507;51.982;20.140;2022-09-17T07:52:00;5.28;;;2.62;;
56637;SDS011;42507;51.982;20.140;2022-09-17T07:54:29;3.72;;;1.92;;
56637;SDS011;42507;51.982;20.140;2022-09-17T07:56:55;2.75;;;2.27;;
56637;SDS011;42507;51.982;20.140;2022-09-17T07:59:21;6.30;;;2.52;;
56637;SDS011;42507;51.982;20.140;2022-09-17T08:01:47;4.50;;;2.47;;
56637;SDS011;42507;51.982;20.140;2022-09-17T08:04:14;4.53;;;2.40;;
56637;SDS011;42507;51.982;20.140;2022-09-17T08:06:40;5.35;;;2.58;;
56637;SDS011;42507;51.982;20.140;2022-09-17T08:09:06;5.20;;;2.22;;
56637;SDS011;42507;51.982;20.140;2022-09-17T08:11:34;5.33;;;2.52;;
56637;SDS011;42507;51.982;20.140;2022-09-17T08:14:00;5.42;;;2.87;;
56637;SDS011;42507;51.982;20.140;2022-09-17T08:16:26;8.23;;;2.60;;
56637;SDS011;42507;51.982;20.140;2022-09-17T08:18:54;5.67;;;2.80;;
56637;SDS011;42507;51.982;20.140;2022-09-17T08:21:22;3.58;;;2.20;;
56637;SDS011;42507;51.982;20.140;2022-09-17T08:23:49;4.15;;;2.12;;
56637;SDS011;42507;51.982;20.140;2022-09-17T08:26:20;3.10;;;1.90;;
56637;SDS011;42507;51.982;20.140;2022-09-17T08:28:48;6.40;;;2.10;;
56637;SDS011;42507;51.982;20.140;2022-09-17T08:31:22;4.83;;;1.92;;
56637;SDS011;42507;51.982;20.140;2022-09-17T08:33:51;5.15;;;2.42;;
56637;SDS011;42507;51.982;20.140;2022-09-17T08:36:18;5.08;;;1.95;;
56637;SDS011;42507;51.982;20.140;2022-09-17T08:38:47;3.17;;;1.90;;
56637;SDS011;42507;51.982;20.140;2022-09-17T08:41:27;3.35;;;1.85;;
56637;SDS011;42507;51.982;20.140;2022-09-17T08:47:02;3.62;;;2.08;;
56637;SDS011;42507;51.982;20.140;2022-09-17T08:49:48;2.72;;;2.00;;
56637;SDS011;42507;51.982;20.140;2022-09-17T09:01:23;3.10;;;2.40;;
56637;SDS011;42507;51.982;20.140;2022-09-17T09:07:14;2.52;;;1.80;;
56637;SDS011;42507;51.982;20.140;2022-09-17T09:09:46;4.27;;;2.00;;
56637;SDS011;42507;51.982;20.140;2022-09-17T09:12:23;2.75;;;1.75;;
56637;SDS011;42507;51.982;20.140;2022-09-17T09:14:56;2.42;;;1.70;;
56637;SDS011;42507;51.982;20.140;2022-09-17T09:17:28;2.60;;;1.70;;
56637;SDS011;42507;51.982;20.140;2022-09-17T09:20:02;2.58;;;2.10;;
56637;SDS011;42507;51.982;20.140;2022-09-17T09:22:36;2.58;;;1.90;;
56637;SDS011;42507;51.982;20.140;2022-09-17T09:25:22;3.00;;;1.67;;
56637;SDS011;42507;51.982;20.140;2022-09-17T09:33:30;1.85;;;1.75;;
56637;SDS011;42507;51.982;20.140;2022-09-17T09:36:00;2.42;;;2.20;;
56637;SDS011;42507;51.982;20.140;2022-09-17T09:38:31;4.12;;;2.37;;
56637;SDS011;42507;51.982;20.140;2022-09-17T09:41:08;2.40;;;2.15;;
56637;SDS011;42507;51.982;20.140;2022-09-17T09:43:46;2.77;;;2.55;;
56637;SDS011;42507;51.982;20.140;2022-09-17T09:49:57;2.22;;;2.10;;
56637;SDS011;42507;51.982;20.140;2022-09-17T09:52:37;3.08;;;2.20;;
56637;SDS011;42507;51.982;20.140;2022-09-17T09:58:39;1.90;;;1.80;;
56637;SDS011;42507;51.982;20.140;2022-09-17T10:01:13;3.72;;;2.52;;
56637;SDS011;42507;51.982;20.140;2022-09-17T10:03:44;3.05;;;2.45;;
56637;SDS011;42507;51.982;20.140;2022-09-17T10:06:16;2.70;;;2.50;;
56637;SDS011;42507;51.982;20.140;2022-09-17T10:08:40;2.45;;;1.82;;
56637;SDS011;42507;51.982;20.140;2022-09-17T10:11:19;1.98;;;1.82;;
56637;SDS011;42507;51.982;20.140;2022-09-17T10:13:47;1.77;;;1.67;;
56637;SDS011;42507;51.982;20.140;2022-09-17T10:16:18;1.90;;;1.32;;
56637;SDS011;42507;51.982;20.140;2022-09-17T10:21:38;1.92;;;1.72;;
56637;SDS011;42507;51.982;20.140;2022-09-17T10:24:13;1.80;;;1.30;;
56637;SDS011;42507;51.982;20.140;2022-09-17T10:26:41;2.20;;;1.62;;
56637;SDS011;42507;51.982;20.140;2022-09-17T10:29:11;2.58;;;1.70;;
56637;SDS011;42507;51.982;20.140;2022-09-17T10:31:47;2.42;;;1.67;;
56637;SDS011;42507;51.982;20.140;2022-09-17T10:34:27;3.12;;;1.82;;
56637;SDS011;42507;51.982;20.140;2022-09-17T10:36:56;2.15;;;1.90;;
56637;SDS011;42507;51.982;20.140;2022-09-17T10:42:18;2.35;;;1.90;;
56637;SDS011;42507;51.982;20.140;2022-09-17T10:44:55;3.35;;;2.80;;
56637;SDS011;42507;51.982;20.140;2022-09-17T10:47:23;3.95;;;3.02;;
56637;SDS011;42507;51.982;20.140;2022-09-17T10:49:56;3.33;;;2.77;;
56637;SDS011;42507;51.982;20.140;2022-09-17T10:52:31;3.20;;;2.90;;
56637;SDS011;42507;51.982;20.140;2022-09-17T11:06:48;1.75;;;1.65;;
56637;SDS011;42507;51.982;20.140;2022-09-17T11:09:45;1.40;;;1.30;;
56637;SDS011;42507;51.982;20.140;2022-09-17T11:12:28;2.27;;;1.85;;
56637;SDS011;42507;51.982;20.140;2022-09-17T11:18:33;2.87;;;2.05;;
56637;SDS011;42507;51.982;20.140;2022-09-17T11:26:38;1.85;;;1.50;;
56637;SDS011;42507;51.982;20.140;2022-09-17T11:29:22;1.85;;;1.37;;
56637;SDS011;42507;51.982;20.140;2022-09-17T11:34:41;2.40;;;1.32;;
56637;SDS011;42507;51.982;20.140;2022-09-17T11:45:25;2.30;;;1.75;;
56637;SDS011;42507;51.982;20.140;2022-09-17T11:48:03;1.62;;;1.30;;
56637;SDS011;42507;51.982;20.140;2022-09-17T11:50:41;1.70;;;1.50;;
56637;SDS011;42507;51.982;20.140;2022-09-17T11:53:21;1.43;;;1.33;;
56637;SDS011;42507;51.982;20.140;2022-09-17T11:56:04;4.22;;;1.60;;
56637;SDS011;42507;51.982;20.140;2022-09-17T12:01:57;1.32;;;1.20;;
56637;SDS011;42507;51.982;20.140;2022-09-17T12:07:30;1.67;;;1.57;;
56637;SDS011;42507;51.982;20.140;2022-09-17T12:13:41;2.60;;;1.70;;
56637;SDS011;42507;51.982;20.140;2022-09-17T12:16:27;2.90;;;1.23;;
56637;SDS011;42507;51.982;20.140;2022-09-17T12:22:11;2.45;;;1.22;;
56637;SDS011;42507;51.982;20.140;2022-09-17T12:24:54;1.50;;;1.30;;
56637;SDS011;42507;51.982;20.140;2022-09-17T12:27:31;2.65;;;1.62;;
56637;SDS011;42507;51.982;20.140;2022-09-17T12:30:09;2.12;;;1.62;;
56637;SDS011;42507;51.982;20.140;2022-09-17T12:32:44;1.52;;;1.42;;
56637;SDS011;42507;51.982;20.140;2022-09-17T12:42:05;1.90;;;1.45;;
56637;SDS011;42507;51.982;20.140;2022-09-17T12:44:51;1.57;;;1.45;;
56637;SDS011;42507;51.982;20.140;2022-09-17T12:47:38;2.47;;;2.10;;
56637;SDS011;42507;51.982;20.140;2022-09-17T12:50:31;2.02;;;1.70;;
56637;SDS011;42507;51.982;20.140;2022-09-17T12:59:04;2.83;;;2.07;;
56637;SDS011;42507;51.982;20.140;2022-09-17T13:01:43;3.80;;;2.42;;
56637;SDS011;42507;51.982;20.140;2022-09-17T13:04:38;3.72;;;2.77;;
56637;SDS011;42507;51.982;20.140;2022-09-17T13:07:20;4.75;;;3.65;;
56637;SDS011;42507;51.982;20.140;2022-09-17T13:21:51;2.80;;;2.47;;
56637;SDS011;42507;51.982;20.140;2022-09-17T13:24:27;4.90;;;2.72;;
56637;SDS011;42507;51.982;20.140;2022-09-17T13:26:56;3.42;;;2.87;;
56637;SDS011;42507;51.982;20.140;2022-09-17T13:37:39;3.52;;;2.60;;
56637;SDS011;42507;51.982;20.140;2022-09-17T13:40:35;6.75;;;3.02;;
56637;SDS011;42507;51.982;20.140;2022-09-17T13:48:32;4.12;;;3.22;;
56637;SDS011;42507;51.982;20.140;2022-09-17T13:51:41;5.00;;;3.20;;
56637;SDS011;42507;51.982;20.140;2022-09-17T13:53:57;5.45;;;3.92;;
56637;SDS011;42507;51.982;20.140;2022-09-17T13:56:33;4.92;;;3.40;;
56637;SDS011;42507;51.982;20.140;2022-09-17T13:59:08;4.28;;;3.33;;
56637;SDS011;42507;51.982;20.140;2022-09-17T14:01:55;5.75;;;3.67;;
56637;SDS011;42507;51.982;20.140;2022-09-17T14:10:39;6.25;;;3.30;;
56637;SDS011;42507;51.982;20.140;2022-09-17T14:15:32;5.53;;;3.55;;
56637;SDS011;42507;51.982;20.140;2022-09-17T14:22:12;5.78;;;3.37;;
56637;SDS011;42507;51.982;20.140;2022-09-17T14:30:32;3.95;;;3.37;;
56637;SDS011;42507;51.982;20.140;2022-09-17T14:35:49;4.05;;;3.45;;
56637;SDS011;42507;51.982;20.140;2022-09-17T14:38:16;5.25;;;3.65;;
56637;SDS011;42507;51.982;20.140;2022-09-17T14:41:05;8.08;;;3.80;;
56637;SDS011;42507;51.982;20.140;2022-09-17T14:46:28;5.80;;;3.33;;
56637;SDS011;42507;51.982;20.140;2022-09-17T14:49:14;5.62;;;3.85;;
56637;SDS011;42507;51.982;20.140;2022-09-17T14:51:54;5.50;;;4.03;;
56637;SDS011;42507;51.982;20.140;2022-09-17T14:54:33;5.72;;;3.87;;
56637;SDS011;42507;51.982;20.140;2022-09-17T14:56:58;5.45;;;3.80;;
56637;SDS011;42507;51.982;20.140;2022-09-17T14:59:48;7.25;;;4.20;;
56637;SDS011;42507;51.982;20.140;2022-09-17T15:04:59;7.72;;;4.85;;
56637;SDS011;42507;51.982;20.140;2022-09-17T15:07:27;6.72;;;4.80;;
56637;SDS011;42507;51.982;20.140;2022-09-17T15:09:53;4.87;;;4.37;;
56637;SDS011;42507;51.982;20.140;2022-09-17T15:12:27;7.78;;;4.67;;
56637;SDS011;42507;51.982;20.140;2022-09-17T15:14:53;6.28;;;4.78;;
56637;SDS011;42507;51.982;20.140;2022-09-17T15:17:20;6.35;;;4.80;;
56637;SDS011;42507;51.982;20.140;2022-09-17T15:19:50;5.10;;;4.60;;
56637;SDS011;42507;51.982;20.140;2022-09-17T15:22:19;6.80;;;4.60;;
56637;SDS011;42507;51.982;20.140;2022-09-17T15:24:53;6.62;;;5.08;;
56637;SDS011;42507;51.982;20.140;2022-09-17T15:30:04;5.83;;;5.00;;
56637;SDS011;42507;51.982;20.140;2022-09-17T15:32:31;6.17;;;5.15;;
56637;SDS011;42507;51.982;20.140;2022-09-17T15:37:47;6.20;;;4.97;;
56637;SDS011;42507;51.982;20.140;2022-09-17T15:42:52;7.22;;;5.85;;
56637;SDS011;42507;51.982;20.140;2022-09-17T15:45:29;8.85;;;5.53;;
56637;SDS011;42507;51.982;20.140;2022-09-17T15:48:00;7.15;;;5.40;;
56637;SDS011;42507;51.982;20.140;2022-09-17T15:50:48;11.12;;;5.40;;
56637;SDS011;42507;51.982;20.140;2022-09-17T15:53:23;7.17;;;5.20;;
56637;SDS011;42507;51.982;20.140;2022-09-17T15:56:00;8.03;;;5.42;;
56637;SDS011;42507;51.982;20.140;2022-09-17T15:58:35;7.20;;;5.50;;
56637;SDS011;42507;51.982;20.140;2022-09-17T16:04:20;6.95;;;5.58;;
56637;SDS011;42507;51.982;20.140;2022-09-17T16:07:01;7.85;;;5.62;;
56637;SDS011;42507;51.982;20.140;2022-09-17T16:09:37;8.10;;;5.20;;
56637;SDS011;42507;51.982;20.140;2022-09-17T16:12:19;9.40;;;5.72;;
56637;SDS011;42507;51.982;20.140;2022-09-17T16:14:45;8.28;;;6.20;;
56637;SDS011;42507;51.982;20.140;2022-09-17T16:20:06;9.38;;;6.50;;
56637;SDS011;42507;51.982;20.140;2022-09-17T16:22:49;9.53;;;6.35;;
56637;SDS011;42507;51.982;20.140;2022-09-17T16:25:18;9.85;;;6.40;;
56637;SDS011;42507;51.982;20.140;2022-09-17T16:27:55;10.48;;;7.22;;
56637;SDS011;42507;51.982;20.140;2022-09-17T16:30:27;9.18;;;7.37;;
56637;SDS011;42507;51.982;20.140;2022-09-17T16:32:53;12.23;;;7.12;;
56637;SDS011;42507;51.982;20.140;2022-09-17T16:35:20;15.48;;;9.65;;
56637;SDS011;42507;51.982;20.140;2022-09-17T16:37:49;12.68;;;9.63;;
56637;SDS011;42507;51.982;20.140;2022-09-17T16:40:18;13.08;;;10.43;;
56637;SDS011;42507;51.982;20.140;2022-09-17T16:42:45;13.10;;;9.55;;
56637;SDS011;42507;51.982;20.140;2022-09-17T16:45:12;13.53;;;7.87;;
56637;SDS011;42507;51.982;20.140;2022-09-17T16:47:40;13.45;;;8.68;;
56637;SDS011;42507;51.982;20.140;2022-09-17T16:50:08;13.85;;;10.48;;
56637;SDS011;42507;51.982;20.140;2022-09-17T16:52:38;13.28;;;9.43;;
56637;SDS011;42507;51.982;20.140;2022-09-17T16:55:06;12.85;;;8.30;;
56637;SDS011;42507;51.982;20.140;2022-09-17T16:57:33;13.68;;;8.85;;
56637;SDS011;42507;51.982;20.140;2022-09-17T16:59:59;18.65;;;11.25;;
56637;SDS011;42507;51.982;20.140;2022-09-17T17:02:26;17.02;;;10.20;;
56637;SDS011;42507;51.982;20.140;2022-09-17T17:04:52;18.80;;;10.13;;
56637;SDS011;42507;51.982;20.140;2022-09-17T17:07:19;16.12;;;9.73;;
56637;SDS011;42507;51.982;20.140;2022-09-17T17:09:46;16.02;;;9.50;;
56637;SDS011;42507;51.982;20.140;2022-09-17T17:12:12;15.58;;;9.95;;
56637;SDS011;42507;51.982;20.140;2022-09-17T17:14:39;14.03;;;10.38;;
56637;SDS011;42507;51.982;20.140;2022-09-17T17:17:05;12.53;;;10.08;;
56637;SDS011;42507;51.982;20.140;2022-09-17T17:19:31;14.75;;;10.40;;
56637;SDS011;42507;51.982;20.140;2022-09-17T17:21:59;15.80;;;10.05;;
56637;SDS011;42507;51.982;20.140;2022-09-17T17:24:25;14.25;;;9.58;;
56637;SDS011;42507;51.982;20.140;2022-09-17T17:26:51;15.90;;;10.30;;
56637;SDS011;42507;51.982;20.140;2022-09-17T17:29:18;19.15;;;11.30;;
56637;SDS011;42507;51.982;20.140;2022-09-17T17:31:44;18.70;;;12.18;;
56637;SDS011;42507;51.982;20.140;2022-09-17T17:34:10;19.85;;;12.58;;
56637;SDS011;42507;51.982;20.140;2022-09-17T17:36:37;20.95;;;13.32;;
56637;SDS011;42507;51.982;20.140;2022-09-17T17:39:03;26.00;;;14.98;;
56637;SDS011;42507;51.982;20.140;2022-09-17T17:41:29;20.27;;;12.37;;
56637;SDS011;42507;51.982;20.140;2022-09-17T17:43:55;16.95;;;11.80;;
56637;SDS011;42507;51.982;20.140;2022-09-17T17:46:22;16.97;;;11.63;;
56637;SDS011;42507;51.982;20.140;2022-09-17T17:48:49;23.35;;;11.68;;
56637;SDS011;42507;51.982;20.140;2022-09-17T17:51:15;17.85;;;11.97;;
56637;SDS011;42507;51.982;20.140;2022-09-17T17:53:45;16.70;;;11.18;;
56637;SDS011;42507;51.982;20.140;2022-09-17T17:56:11;19.07;;;12.60;;